Time;durP1;ratioP1;P1;durP2;ratioP2;P2;SDS_P1;SDS_P2;PMS_P1;PMS_P2;Temp;Humidity;BMP_temperature;BMP_pressure;BME280_temperature;BME280_humidity;BME280_pressure;Samples;Min_cycle;Max_cycle;Signal;HPM_P1;HPM_P2
2021/12/26 00:02:15;;;;;;;12.13;7.88;;;1.20;99.90;;;;;;5017624;28;20401;-65
2021/12/26 00:04:43;;;;;;;14.50;7.80;;;1.20;99.90;;;;;;5012716;28;20053;-67
2021/12/26 00:07:10;;;;;;;14.50;8.35;;;1.20;99.90;;;;;;5012636;28;20042;-66
2021/12/26 00:09:37;;;;;;;15.32;8.65;;;1.20;99.90;;;;;;5012553;28;20046;-64
2021/12/26 00:12:05;;;;;;;15.38;8.57;;;1.10;99.90;;;;;;5011064;28;20049;-66
2021/12/26 00:14:33;;;;;;;14.90;9.15;;;1.10;99.90;;;;;;5011637;28;20041;-64
2021/12/26 00:17:01;;;;;;;14.57;8.25;;;1.10;99.90;;;;;;5013618;28;20129;-65
2021/12/26 00:19:28;;;;;;;12.80;7.60;;;1.10;99.90;;;;;;5012416;28;20408;-64
2021/12/26 00:21:56;;;;;;;14.13;7.78;;;1.20;99.90;;;;;;5011865;28;20148;-65
2021/12/26 00:24:23;;;;;;;11.88;7.50;;;1.10;99.90;;;;;;5011536;28;20584;-65
2021/12/26 00:26:51;;;;;;;12.93;8.00;;;1.20;99.90;;;;;;5024631;28;20492;-65
2021/12/26 00:29:19;;;;;;;13.63;8.13;;;1.20;99.90;;;;;;5023030;28;20140;-65
2021/12/26 00:31:46;;;;;;;18.42;9.70;;;1.20;99.90;;;;;;5024622;28;20042;-65
2021/12/26 00:34:14;;;;;;;16.15;9.95;;;1.20;99.90;;;;;;5011793;28;20046;-65
2021/12/26 00:36:44;;;;;;;17.30;9.32;;;1.20;99.90;;;;;;5025836;28;20417;-65
2021/12/26 00:39:11;;;;;;;14.38;8.43;;;1.20;99.90;;;;;;5014056;28;20048;-65
2021/12/26 00:41:39;;;;;;;15.18;9.02;;;1.20;99.90;;;;;;5016671;28;20048;-65
2021/12/26 00:44:08;;;;;;;17.08;9.15;;;1.20;99.90;;;;;;5033783;28;20045;-65
2021/12/26 00:46:39;;;;;;;17.20;9.63;;;1.20;99.90;;;;;;5013089;28;20148;-65
2021/12/26 00:49:07;;;;;;;22.20;10.45;;;1.20;99.90;;;;;;5021428;28;20673;-65
2021/12/26 00:51:34;;;;;;;19.50;10.85;;;1.20;99.90;;;;;;5019554;28;20037;-67
2021/12/26 00:54:02;;;;;;;14.02;8.40;;;1.20;99.90;;;;;;5029807;28;20472;-65
2021/12/26 00:56:31;;;;;;;15.05;8.70;;;1.20;99.90;;;;;;5028300;28;20085;-66
2021/12/26 00:58:58;;;;;;;15.13;9.10;;;1.20;99.90;;;;;;5030905;28;20072;-65
2021/12/26 01:01:25;;;;;;;15.60;8.90;;;1.20;99.90;;;;;;5017636;28;20045;-65
2021/12/26 01:03:53;;;;;;;15.20;8.93;;;1.20;99.90;;;;;;5029120;28;20461;-66
2021/12/26 01:06:21;;;;;;;12.27;7.03;;;1.20;99.90;;;;;;5011615;28;20088;-66
2021/12/26 01:08:51;;;;;;;13.40;7.82;;;1.10;99.90;;;;;;5009890;28;20095;-65
2021/12/26 01:11:48;;;;;;;11.23;6.97;;;1.10;99.90;;;;;;5021202;28;20492;-65
2021/12/26 01:14:14;;;;;;;15.05;7.50;;;1.10;99.90;;;;;;5025731;28;20100;-65
2021/12/26 01:17:10;;;;;;;15.73;8.13;;;1.10;99.90;;;;;;5021029;28;20045;-66
2021/12/26 01:19:58;;;;;;;13.85;8.25;;;1.10;99.90;;;;;;5022752;28;20054;-66
2021/12/26 01:22:26;;;;;;;12.98;7.72;;;1.10;99.90;;;;;;5055707;28;20065;-66
2021/12/26 01:25:06;;;;;;;15.15;8.07;;;1.10;99.90;;;;;;5029953;28;20128;-65
2021/12/26 01:27:34;;;;;;;14.80;8.73;;;1.10;99.90;;;;;;5020866;28;20045;-65
2021/12/26 01:30:04;;;;;;;15.77;8.80;;;1.10;99.90;;;;;;5018886;28;20072;-65
2021/12/26 01:32:32;;;;;;;14.95;8.68;;;1.10;99.90;;;;;;5017156;28;20092;-66
2021/12/26 01:35:05;;;;;;;16.00;8.60;;;1.10;99.90;;;;;;5014316;28;20030;-66
2021/12/26 01:37:49;;;;;;;15.15;8.40;;;1.10;99.90;;;;;;5024756;28;20516;-66
2021/12/26 01:40:44;;;;;;;14.40;8.02;;;1.10;99.90;;;;;;5019004;28;20053;-66
2021/12/26 01:43:21;;;;;;;14.43;7.88;;;1.10;99.90;;;;;;5010070;28;20524;-66
2021/12/26 01:45:58;;;;;;;15.10;8.07;;;1.10;99.90;;;;;;4992912;28;20528;-66
2021/12/26 01:48:25;;;;;;;17.48;8.80;;;1.10;99.90;;;;;;5008731;28;20042;-65
2021/12/26 01:50:54;;;;;;;17.55;8.25;;;1.00;99.90;;;;;;5015016;28;20084;-66
2021/12/26 01:53:24;;;;;;;16.17;8.73;;;1.00;99.90;;;;;;5028802;28;20563;-65
2021/12/26 01:55:55;;;;;;;17.52;9.27;;;1.00;99.90;;;;;;5028317;28;20546;-65
2021/12/26 01:58:27;;;;;;;16.45;8.50;;;1.00;99.90;;;;;;5032359;28;20124;-65
2021/12/26 02:01:01;;;;;;;14.23;8.50;;;1.00;99.90;;;;;;5028220;28;20484;-65
2021/12/26 02:03:29;;;;;;;14.82;7.93;;;0.90;99.90;;;;;;5018233;28;20514;-65
2021/12/26 02:05:57;;;;;;;16.70;8.35;;;0.90;99.90;;;;;;5018510;28;20359;-65
2021/12/26 02:08:25;;;;;;;15.02;8.40;;;0.90;99.90;;;;;;5018125;28;20408;-65
2021/12/26 02:10:52;;;;;;;14.68;8.60;;;0.90;99.90;;;;;;5011930;28;20503;-65
2021/12/26 02:13:20;;;;;;;15.15;8.27;;;0.90;99.90;;;;;;5028650;28;20511;-65
2021/12/26 02:15:51;;;;;;;15.63;8.55;;;0.90;99.90;;;;;;5014758;28;20516;-65
2021/12/26 02:18:20;;;;;;;15.32;8.65;;;0.90;99.90;;;;;;5016514;28;20072;-65
2021/12/26 02:23:30;;;;;;;16.65;8.65;;;0.90;99.90;;;;;;5015664;28;20496;-65
2021/12/26 02:28:46;;;;;;;16.35;8.75;;;0.90;99.90;;;;;;5008473;28;20041;-65
2021/12/26 02:31:16;;;;;;;17.23;9.10;;;0.90;99.90;;;;;;5026601;28;20154;-65
2021/12/26 02:33:44;;;;;;;16.63;8.68;;;0.90;99.90;;;;;;5023583;28;20045;-65
2021/12/26 02:36:11;;;;;;;14.80;8.52;;;0.90;99.90;;;;;;5028068;28;20055;-65
2021/12/26 02:38:39;;;;;;;16.35;8.70;;;0.90;99.90;;;;;;5009974;28;20092;-65
2021/12/26 02:41:06;;;;;;;18.88;9.55;;;0.90;99.90;;;;;;5020485;28;20041;-65
2021/12/26 02:43:36;;;;;;;14.70;8.02;;;0.90;99.90;;;;;;5023135;28;20042;-65
2021/12/26 02:46:06;;;;;;;19.27;9.95;;;0.90;99.90;;;;;;5008510;28;20041;-65
2021/12/26 02:48:38;;;;;;;16.52;9.35;;;0.90;99.90;;;;;;5022126;28;20096;-65
2021/12/26 02:51:07;;;;;;;16.55;9.15;;;0.90;99.90;;;;;;5025417;28;20127;-65
2021/12/26 02:53:35;;;;;;;21.52;10.68;;;0.90;99.90;;;;;;5027932;28;20080;-65
2021/12/26 02:56:03;;;;;;;20.02;10.07;;;0.90;99.90;;;;;;5022324;28;20099;-65
2021/12/26 02:58:31;;;;;;;17.35;9.18;;;0.90;99.90;;;;;;5024016;28;20049;-65
2021/12/26 03:01:22;;;;;;;17.77;9.32;;;0.90;99.90;;;;;;5034187;28;20048;-65
2021/12/26 03:03:50;;;;;;;19.27;9.40;;;0.90;99.90;;;;;;5028001;28;20107;-65
2021/12/26 03:06:38;;;;;;;18.05;9.27;;;0.90;99.90;;;;;;5027589;28;20048;-65
2021/12/26 03:09:07;;;;;;;17.05;9.07;;;0.80;99.90;;;;;;5014213;28;20053;-65
2021/12/26 03:11:38;;;;;;;16.80;9.32;;;0.80;99.90;;;;;;5016807;28;20500;-65
2021/12/26 03:14:06;;;;;;;18.23;9.13;;;0.80;99.90;;;;;;5029358;28;20054;-65
2021/12/26 03:16:35;;;;;;;16.77;8.98;;;0.90;99.90;;;;;;5008495;28;20515;-65
2021/12/26 03:19:02;;;;;;;18.98;9.30;;;0.90;99.90;;;;;;5021726;28;20053;-65
2021/12/26 03:21:30;;;;;;;17.92;9.70;;;0.90;99.90;;;;;;5029862;28;20075;-65
2021/12/26 03:23:57;;;;;;;17.17;9.05;;;0.80;99.90;;;;;;5032026;28;20381;-65
2021/12/26 03:26:26;;;;;;;16.90;9.45;;;0.80;99.90;;;;;;5031405;28;20033;-66
2021/12/26 03:28:54;;;;;;;20.73;10.45;;;0.80;99.90;;;;;;5040087;28;20049;-65
2021/12/26 03:31:21;;;;;;;19.17;10.73;;;0.90;99.90;;;;;;5029928;28;20160;-65
2021/12/26 03:33:48;;;;;;;19.00;9.60;;;0.90;99.90;;;;;;5031020;28;20041;-65
2021/12/26 03:36:16;;;;;;;19.35;9.95;;;0.90;99.90;;;;;;5030730;28;20389;-65
2021/12/26 03:38:43;;;;;;;21.38;10.48;;;0.80;99.90;;;;;;5044851;28;20042;-65
2021/12/26 03:41:24;;;;;;;17.20;8.77;;;0.80;99.90;;;;;;5031044;28;20033;-65
2021/12/26 03:43:58;;;;;;;17.88;9.63;;;0.80;99.90;;;;;;5030926;28;20134;-65
2021/12/26 03:46:25;;;;;;;18.73;10.32;;;0.80;99.90;;;;;;5030812;28;20049;-65
2021/12/26 03:48:52;;;;;;;20.73;10.68;;;0.90;99.90;;;;;;5031623;28;20420;-65
2021/12/26 03:51:20;;;;;;;21.73;10.85;;;0.90;99.90;;;;;;5031554;28;20033;-65
2021/12/26 03:53:49;;;;;;;19.60;9.95;;;0.90;99.90;;;;;;5030391;28;20132;-65
2021/12/26 03:56:17;;;;;;;21.77;10.07;;;0.90;99.90;;;;;;5031575;28;20488;-65
2021/12/26 03:59:00;;;;;;;16.42;9.20;;;0.90;99.90;;;;;;5029914;28;20045;-65
2021/12/26 04:01:28;;;;;;;18.92;9.50;;;0.80;99.90;;;;;;5030723;28;20099;-65
2021/12/26 04:03:55;;;;;;;18.10;9.10;;;0.90;99.90;;;;;;5030466;28;20049;-65
2021/12/26 04:06:23;;;;;;;15.80;9.23;;;0.90;99.90;;;;;;5028873;28;20041;-65
2021/12/26 04:08:50;;;;;;;20.35;10.95;;;0.90;99.90;;;;;;5030597;28;20079;-65
2021/12/26 04:11:18;;;;;;;19.63;9.30;;;0.90;99.90;;;;;;5030446;28;20084;-65
2021/12/26 04:13:45;;;;;;;18.05;10.02;;;0.90;99.90;;;;;;5029487;28;20042;-65
2021/12/26 04:16:13;;;;;;;16.85;9.50;;;0.90;99.90;;;;;;5031208;28;20068;-65
2021/12/26 04:18:40;;;;;;;19.48;9.07;;;0.90;99.90;;;;;;5029573;28;20096;-65
2021/12/26 04:21:09;;;;;;;17.02;9.07;;;0.90;99.90;;;;;;5029152;28;20466;-65
2021/12/26 04:23:44;;;;;;;16.80;8.95;;;0.90;99.90;;;;;;5030872;28;20045;-65
2021/12/26 04:26:11;;;;;;;18.17;9.23;;;0.90;99.90;;;;;;5030598;28;20042;-65
2021/12/26 04:28:38;;;;;;;18.90;9.07;;;0.90;99.90;;;;;;5030606;28;20037;-65
2021/12/26 04:31:06;;;;;;;17.15;9.30;;;0.90;99.90;;;;;;5028619;28;20124;-65
2021/12/26 04:33:34;;;;;;;17.63;9.45;;;1.00;99.90;;;;;;5057857;28;20071;-65
2021/12/26 04:36:01;;;;;;;16.85;8.68;;;1.00;99.90;;;;;;5029280;28;20051;-65
2021/12/26 04:38:29;;;;;;;18.30;9.60;;;1.00;99.90;;;;;;5028197;28;20112;-65
2021/12/26 04:40:56;;;;;;;13.27;8.35;;;1.00;99.90;;;;;;5012129;28;20053;-65
2021/12/26 04:43:41;;;;;;;15.85;8.75;;;0.90;99.90;;;;;;5029490;28;20029;-65
2021/12/26 04:46:21;;;;;;;19.85;10.27;;;0.90;99.90;;;;;;5029952;28;20412;-65
2021/12/26 04:48:53;;;;;;;21.42;11.43;;;0.90;99.90;;;;;;5029707;28;20472;-65
2021/12/26 04:51:21;;;;;;;18.13;10.43;;;0.90;99.90;;;;;;5036162;28;20045;-65
2021/12/26 04:53:54;;;;;;;18.70;9.65;;;0.90;99.90;;;;;;5011261;28;20058;-65
2021/12/26 04:56:21;;;;;;;14.70;8.88;;;0.80;99.90;;;;;;5029147;28;20472;-65
2021/12/26 04:58:48;;;;;;;17.13;9.07;;;0.90;99.90;;;;;;5029890;28;20037;-65
2021/12/26 05:01:16;;;;;;;15.05;8.85;;;0.90;99.90;;;;;;5029146;28;20057;-65
2021/12/26 05:03:43;;;;;;;19.75;9.35;;;0.90;99.90;;;;;;5030855;28;20052;-65
2021/12/26 05:06:10;;;;;;;19.90;9.52;;;0.90;99.90;;;;;;5028434;28;20041;-65
2021/12/26 05:08:38;;;;;;;17.80;9.20;;;0.90;99.90;;;;;;5029671;28;20045;-65
2021/12/26 05:11:05;;;;;;;16.05;8.65;;;0.90;99.90;;;;;;5031092;28;20041;-65
2021/12/26 05:13:32;;;;;;;15.38;9.00;;;0.90;99.90;;;;;;5031242;28;20038;-65
2021/12/26 05:15:59;;;;;;;16.83;9.93;;;0.90;99.90;;;;;;5030557;28;20064;-65
2021/12/26 05:18:27;;;;;;;19.33;10.10;;;0.90;99.90;;;;;;5029291;28;20401;-65
2021/12/26 05:20:59;;;;;;;17.40;8.88;;;1.00;99.90;;;;;;5023214;28;20046;-65
2021/12/26 05:23:26;;;;;;;18.40;9.57;;;1.00;99.90;;;;;;5030442;28;20493;-65
2021/12/26 05:25:54;;;;;;;20.27;11.23;;;1.00;99.90;;;;;;5027560;28;20042;-65
2021/12/26 05:28:23;;;;;;;20.73;10.45;;;1.00;99.90;;;;;;5028053;28;20567;-65
2021/12/26 05:30:52;;;;;;;17.23;9.65;;;1.00;99.90;;;;;;5029138;28;20052;-66
2021/12/26 05:33:26;;;;;;;19.98;11.30;;;1.00;99.90;;;;;;5013643;28;20408;-65
2021/12/26 05:35:59;;;;;;;21.88;10.75;;;1.00;99.90;;;;;;5028084;28;20120;-65
2021/12/26 05:38:28;;;;;;;19.70;10.95;;;1.10;99.90;;;;;;5028561;28;20057;-65
2021/12/26 05:40:56;;;;;;;18.98;9.75;;;1.10;99.90;;;;;;5028000;28;20052;-65
2021/12/26 05:43:23;;;;;;;17.55;9.98;;;1.20;99.90;;;;;;5029965;28;20087;-65
2021/12/26 05:45:52;;;;;;;18.67;9.68;;;1.20;99.90;;;;;;5028667;28;20052;-65
2021/12/26 05:48:22;;;;;;;18.55;10.30;;;1.20;99.90;;;;;;5028765;28;20138;-65
2021/12/26 05:50:52;;;;;;;22.20;11.88;;;1.20;99.90;;;;;;5027341;28;20554;-65
2021/12/26 05:53:38;;;;;;;23.83;12.15;;;1.20;99.90;;;;;;5030667;28;20041;-65
2021/12/26 05:56:05;;;;;;;17.90;9.93;;;1.30;99.90;;;;;;5024428;28;20492;-65
2021/12/26 05:58:34;;;;;;;19.63;10.32;;;1.20;99.90;;;;;;5023090;28;20112;-65
2021/12/26 06:01:03;;;;;;;20.77;10.30;;;1.30;99.90;;;;;;5026962;28;20400;-65
2021/12/26 06:03:31;;;;;;;16.85;10.02;;;1.30;99.90;;;;;;5026712;28;20049;-65
2021/12/26 06:05:58;;;;;;;16.10;10.15;;;1.30;99.90;;;;;;5026816;28;20037;-66
2021/12/26 06:08:35;;;;;;;17.83;10.05;;;1.20;99.90;;;;;;5012162;28;20056;-66
2021/12/26 06:11:03;;;;;;;18.67;9.93;;;1.20;99.90;;;;;;5028349;28;20041;-66
2021/12/26 06:13:31;;;;;;;19.58;11.27;;;1.20;99.90;;;;;;5012546;28;20124;-65
2021/12/26 06:16:00;;;;;;;21.27;11.27;;;1.20;99.90;;;;;;5043466;28;20107;-65
2021/12/26 06:18:27;;;;;;;21.02;11.38;;;1.20;99.90;;;;;;5027177;28;20124;-65
2021/12/26 06:21:13;;;;;;;19.38;10.52;;;1.30;99.90;;;;;;5028047;28;20107;-65
2021/12/26 06:23:50;;;;;;;19.83;9.93;;;1.30;99.90;;;;;;5028895;28;20528;-65
2021/12/26 06:26:37;;;;;;;18.88;10.00;;;1.20;99.90;;;;;;5027847;28;20045;-65
2021/12/26 06:29:34;;;;;;;19.67;10.45;;;1.10;99.90;;;;;;5024626;28;20084;-65
2021/12/26 06:32:20;;;;;;;18.75;9.50;;;1.20;99.90;;;;;;5028346;28;20116;-65
2021/12/26 06:35:13;;;;;;;19.00;10.45;;;1.10;99.90;;;;;;5020839;28;20517;-65
2021/12/26 06:37:59;;;;;;;17.80;9.75;;;1.10;99.90;;;;;;5052277;28;20033;-65
2021/12/26 06:40:45;;;;;;;19.20;10.50;;;1.10;99.90;;;;;;5025778;28;20041;-65
2021/12/26 06:43:31;;;;;;;20.42;10.80;;;1.20;99.90;;;;;;5027021;28;20045;-65
2021/12/26 06:46:18;;;;;;;15.32;9.80;;;1.20;99.90;;;;;;5029258;28;20122;-65
2021/12/26 06:49:21;;;;;;;18.02;10.57;;;1.20;99.90;;;;;;5032646;28;20098;-65
2021/12/26 06:51:50;;;;;;;19.90;10.70;;;1.20;99.90;;;;;;5029267;28;20042;-65
2021/12/26 06:54:17;;;;;;;18.55;9.82;;;1.20;99.90;;;;;;5026528;28;20052;-65
2021/12/26 06:56:44;;;;;;;18.27;10.52;;;1.20;99.90;;;;;;5008320;28;20046;-65
2021/12/26 06:59:12;;;;;;;18.88;10.05;;;1.20;99.90;;;;;;5028775;28;20583;-65
2021/12/26 07:01:39;;;;;;;17.88;10.35;;;1.30;99.90;;;;;;5044150;28;20049;-65
2021/12/26 07:04:09;;;;;;;21.77;12.20;;;1.30;99.90;;;;;;5027204;28;20385;-65
2021/12/26 07:06:37;;;;;;;24.98;13.93;;;1.30;99.90;;;;;;5026502;28;20045;-65
2021/12/26 07:09:17;;;;;;;35.00;18.23;;;1.30;99.90;;;;;;5025875;28;20053;-65
2021/12/26 07:11:44;;;;;;;20.83;11.63;;;1.30;99.90;;;;;;5028609;28;20038;-65
2021/12/26 07:14:22;;;;;;;21.42;11.65;;;1.30;99.90;;;;;;5027069;28;20038;-65
2021/12/26 07:16:50;;;;;;;18.95;10.68;;;1.30;99.90;;;;;;5023158;28;20518;-65
2021/12/26 07:19:17;;;;;;;21.67;10.90;;;1.40;99.90;;;;;;5027080;28;20470;-66
2021/12/26 07:21:45;;;;;;;19.27;9.98;;;1.30;99.90;;;;;;5009932;28;20056;-66
2021/12/26 07:24:12;;;;;;;19.90;10.82;;;1.40;99.90;;;;;;5024494;28;20073;-66
2021/12/26 07:26:40;;;;;;;19.33;10.82;;;1.40;99.90;;;;;;5042113;28;20322;-66
2021/12/26 07:29:27;;;;;;;19.10;10.90;;;1.40;99.90;;;;;;5029148;28;20053;-66
2021/12/26 07:31:55;;;;;;;20.40;11.23;;;1.50;99.90;;;;;;5025423;28;20064;-66
2021/12/26 07:34:23;;;;;;;21.48;11.35;;;1.50;99.90;;;;;;5004775;28;20042;-66
2021/12/26 07:36:51;;;;;;;18.20;10.85;;;1.60;99.90;;;;;;5025284;28;20377;-66
2021/12/26 07:39:21;;;;;;;19.83;11.45;;;1.60;99.90;;;;;;5026878;28;20041;-66
2021/12/26 07:41:49;;;;;;;21.13;11.73;;;1.60;99.90;;;;;;5026806;28;20052;-65
2021/12/26 07:44:36;;;;;;;21.23;11.52;;;1.60;99.90;;;;;;5025647;28;20400;-65
2021/12/26 07:47:22;;;;;;;18.33;11.48;;;1.60;99.90;;;;;;5022397;28;20037;-65
2021/12/26 07:49:51;;;;;;;21.73;11.75;;;1.60;99.90;;;;;;5024843;28;20120;-65
2021/12/26 07:52:41;;;;;;;24.77;12.23;;;1.70;99.90;;;;;;5029521;28;20041;-65
2021/12/26 07:55:27;;;;;;;22.70;12.68;;;1.70;99.90;;;;;;5059894;28;20439;-65
2021/12/26 07:58:15;;;;;;;23.00;12.02;;;1.80;99.90;;;;;;5032568;28;20505;-64
2021/12/26 08:01:02;;;;;;;24.48;13.45;;;1.80;99.90;;;;;;5028053;28;20492;-65
2021/12/26 08:03:52;;;;;;;21.88;12.18;;;1.90;99.90;;;;;;5026725;28;20054;-67
2021/12/26 08:06:59;;;;;;;22.77;12.15;;;1.80;99.90;;;;;;5019919;28;20046;-66
2021/12/26 08:09:28;;;;;;;20.92;11.98;;;1.90;99.90;;;;;;5031102;28;20099;-65
2021/12/26 08:11:56;;;;;;;20.05;10.70;;;1.90;99.90;;;;;;5014714;28;20073;-65
2021/12/26 08:14:23;;;;;;;21.02;12.32;;;1.90;99.90;;;;;;5015124;28;20112;-65
2021/12/26 08:16:50;;;;;;;22.92;12.00;;;2.00;99.90;;;;;;5028284;28;20382;-64
2021/12/26 08:19:18;;;;;;;28.02;14.82;;;2.00;99.90;;;;;;5030135;28;20049;-65
2021/12/26 08:21:45;;;;;;;36.25;19.33;;;2.00;99.90;;;;;;5032073;28;20519;-65
2021/12/26 08:24:12;;;;;;;25.02;14.77;;;2.10;99.90;;;;;;5031391;28;20497;-65
2021/12/26 08:26:41;;;;;;;22.23;12.60;;;2.10;99.90;;;;;;5032544;28;20483;-65
2021/12/26 08:29:08;;;;;;;24.33;13.35;;;2.10;99.90;;;;;;5014746;28;20052;-64
2021/12/26 08:31:35;;;;;;;22.33;12.77;;;2.10;99.90;;;;;;5028821;28;20111;-65
2021/12/26 08:34:04;;;;;;;22.58;12.00;;;2.10;99.90;;;;;;5029093;28;20046;-65
2021/12/26 08:36:31;;;;;;;22.08;12.23;;;2.10;99.90;;;;;;5030631;28;20465;-64
2021/12/26 08:38:59;;;;;;;19.40;11.95;;;2.10;99.90;;;;;;5030490;28;20049;-65
2021/12/26 08:41:26;;;;;;;23.40;12.68;;;2.10;99.90;;;;;;5031242;28;20045;-64
2021/12/26 08:43:53;;;;;;;19.55;11.88;;;2.20;99.90;;;;;;5032205;28;20500;-65
2021/12/26 08:46:23;;;;;;;21.83;12.38;;;2.20;99.90;;;;;;5029618;28;20053;-65
2021/12/26 08:48:51;;;;;;;21.70;11.80;;;2.30;99.90;;;;;;5032140;28;20073;-65
2021/12/26 08:51:18;;;;;;;21.40;12.73;;;2.40;99.90;;;;;;5031578;28;20068;-64
2021/12/26 08:53:46;;;;;;;21.55;11.77;;;2.40;99.90;;;;;;5030777;28;20080;-65
2021/12/26 08:56:13;;;;;;;23.27;13.68;;;2.40;99.90;;;;;;5031475;28;20045;-65
2021/12/26 08:58:41;;;;;;;24.25;13.90;;;2.50;99.90;;;;;;5029157;28;20045;-65
2021/12/26 09:01:08;;;;;;;25.67;14.27;;;2.40;99.90;;;;;;5030645;28;20041;-65
2021/12/26 09:03:37;;;;;;;31.02;16.92;;;2.40;99.90;;;;;;5017952;28;20100;-65
2021/12/26 09:06:05;;;;;;;26.35;13.10;;;2.40;99.90;;;;;;5028883;28;20455;-65
2021/12/26 09:08:32;;;;;;;19.88;11.82;;;2.40;99.90;;;;;;5031862;28;20488;-65
2021/12/26 09:11:02;;;;;;;19.67;11.63;;;2.50;99.90;;;;;;5031610;28;20531;-65
2021/12/26 09:13:30;;;;;;;23.35;12.05;;;2.50;99.90;;;;;;5021019;28;20096;-65
2021/12/26 09:15:57;;;;;;;22.73;12.90;;;2.40;99.90;;;;;;5031298;28;20045;-65
2021/12/26 09:18:25;;;;;;;22.98;12.73;;;2.40;99.90;;;;;;5028926;28;20878;-65
2021/12/26 09:20:52;;;;;;;23.42;13.05;;;2.50;99.90;;;;;;5031521;28;20053;-65
2021/12/26 09:23:21;;;;;;;23.02;12.20;;;2.50;99.90;;;;;;5031240;28;20041;-65
2021/12/26 09:25:48;;;;;;;23.48;12.25;;;2.50;99.90;;;;;;5030892;28;20061;-65
2021/12/26 09:28:16;;;;;;;23.92;13.45;;;2.50;99.90;;;;;;5029072;28;20055;-65
2021/12/26 09:30:43;;;;;;;32.22;16.15;;;2.50;99.90;;;;;;5031417;28;20053;-65
2021/12/26 09:33:11;;;;;;;23.15;13.30;;;2.60;99.90;;;;;;5031627;28;20043;-65
2021/12/26 09:35:39;;;;;;;22.30;13.20;;;2.60;99.90;;;;;;5031328;28;20476;-65
2021/12/26 09:38:07;;;;;;;23.40;13.27;;;2.60;99.90;;;;;;5031249;28;20053;-65
2021/12/26 09:40:35;;;;;;;23.85;13.27;;;2.70;99.90;;;;;;5030197;28;20511;-64
2021/12/26 09:43:02;;;;;;;23.65;13.02;;;2.70;99.90;;;;;;5031202;28;20810;-64
2021/12/26 09:45:30;;;;;;;22.75;13.50;;;2.80;99.90;;;;;;5031148;28;20442;-64
2021/12/26 09:47:58;;;;;;;25.85;14.63;;;2.80;99.90;;;;;;5030460;28;20044;-65
2021/12/26 09:50:26;;;;;;;24.40;14.10;;;2.80;99.90;;;;;;5027145;28;20077;-65
2021/12/26 09:52:54;;;;;;;25.05;14.73;;;2.90;99.90;;;;;;5029432;28;20049;-64
2021/12/26 09:55:26;;;;;;;24.67;13.02;;;2.90;99.90;;;;;;5030432;28;20044;-65
2021/12/26 09:57:53;;;;;;;25.25;14.15;;;3.00;99.90;;;;;;5034304;28;20041;-65
2021/12/26 10:00:25;;;;;;;28.27;15.07;;;3.00;99.90;;;;;;5029262;28;20052;-64
2021/12/26 10:03:16;;;;;;;25.10;13.75;;;3.00;99.90;;;;;;5029810;28;20061;-65
2021/12/26 10:06:12;;;;;;;21.83;12.55;;;3.10;99.90;;;;;;5029568;28;20092;-65
2021/12/26 10:08:57;;;;;;;20.75;12.18;;;3.10;99.90;;;;;;5030801;28;20055;-65
2021/12/26 10:11:29;;;;;;;23.52;12.25;;;3.10;99.90;;;;;;5017582;28;20511;-65
2021/12/26 10:14:03;;;;;;;22.52;11.75;;;3.10;99.90;;;;;;5031168;28;20500;-66
2021/12/26 10:16:35;;;;;;;25.35;13.55;;;3.00;99.90;;;;;;5017500;28;20042;-66
2021/12/26 10:19:04;;;;;;;23.52;12.98;;;3.00;99.90;;;;;;5055602;28;20048;-64
2021/12/26 10:21:37;;;;;;;27.40;13.73;;;3.00;99.90;;;;;;5029971;28;20048;-65
2021/12/26 10:24:25;;;;;;;23.27;12.70;;;3.10;99.90;;;;;;5022480;28;20128;-65
2021/12/26 10:26:59;;;;;;;24.00;12.85;;;3.10;99.90;;;;;;5022810;28;20099;-64
2021/12/26 10:29:38;;;;;;;26.88;14.82;;;3.10;99.90;;;;;;5029235;28;20493;-65
2021/12/26 10:32:13;;;;;;;23.25;12.95;;;3.10;99.90;;;;;;5029093;28;20064;-65
2021/12/26 10:34:44;;;;;;;23.80;12.45;;;3.10;99.90;;;;;;5028116;28;20076;-65
2021/12/26 10:37:28;;;;;;;21.13;11.93;;;3.20;99.90;;;;;;5011674;28;20050;-66
2021/12/26 10:39:59;;;;;;;22.50;12.93;;;3.20;99.90;;;;;;5029432;28;20049;-66
2021/12/26 10:42:36;;;;;;;22.15;12.45;;;3.20;99.90;;;;;;5006916;28;20057;-66
2021/12/26 10:45:09;;;;;;;20.58;12.52;;;3.30;99.90;;;;;;5029879;28;20044;-66
2021/12/26 10:47:40;;;;;;;20.02;11.88;;;3.30;99.90;;;;;;5029988;28;20124;-67
2021/12/26 10:50:14;;;;;;;25.45;13.77;;;3.40;99.90;;;;;;5020407;28;20148;-64
2021/12/26 10:52:51;;;;;;;22.63;12.40;;;3.50;99.90;;;;;;5028768;28;20507;-65
2021/12/26 10:55:26;;;;;;;22.52;12.98;;;3.50;99.90;;;;;;5028918;28;20054;-65
2021/12/26 10:57:53;;;;;;;22.38;12.77;;;3.50;99.90;;;;;;5027865;28;20045;-64
2021/12/26 11:00:26;;;;;;;20.50;11.82;;;3.50;99.90;;;;;;5028606;28;20107;-64
2021/12/26 11:03:07;;;;;;;20.08;11.75;;;3.50;99.90;;;;;;5024311;28;20053;-64
2021/12/26 11:05:42;;;;;;;20.83;12.23;;;3.50;99.90;;;;;;5029363;28;20107;-64
2021/12/26 11:08:11;;;;;;;19.02;11.70;;;3.60;99.90;;;;;;5029342;28;20136;-64
2021/12/26 11:10:40;;;;;;;20.77;11.88;;;3.60;99.90;;;;;;5029879;28;20049;-64
2021/12/26 11:13:18;;;;;;;20.05;11.27;;;3.60;99.90;;;;;;5018788;28;20041;-64
2021/12/26 11:15:46;;;;;;;18.90;11.77;;;3.70;99.90;;;;;;5029697;28;20037;-64
2021/12/26 11:18:16;;;;;;;19.05;11.60;;;3.70;99.90;;;;;;5029135;28;20049;-64
2021/12/26 11:20:52;;;;;;;18.35;10.25;;;3.70;99.90;;;;;;5027627;28;22011;-65
2021/12/26 11:23:31;;;;;;;25.13;15.00;;;3.70;99.90;;;;;;5026154;28;20411;-64
2021/12/26 11:26:08;;;;;;;20.98;12.55;;;3.70;99.90;;;;;;5028720;28;20051;-64
2021/12/26 11:28:40;;;;;;;19.55;12.10;;;3.80;99.90;;;;;;5027910;28;20044;-64
2021/12/26 11:31:22;;;;;;;18.17;11.70;;;3.80;99.90;;;;;;5028708;28;20041;-64
2021/12/26 11:33:55;;;;;;;18.38;11.27;;;3.80;99.90;;;;;;5028984;28;20072;-64
2021/12/26 11:36:25;;;;;;;18.73;11.55;;;3.80;99.90;;;;;;5028333;28;20041;-64
2021/12/26 11:39:06;;;;;;;19.42;11.77;;;3.80;99.90;;;;;;5027967;28;20125;-64
2021/12/26 11:42:01;;;;;;;17.35;11.05;;;3.80;99.90;;;;;;5031847;28;20069;-64
2021/12/26 11:45:15;;;;;;;18.83;11.23;;;3.80;99.90;;;;;;5060126;28;20049;-64
2021/12/26 11:48:25;;;;;;;18.80;11.70;;;3.80;99.90;;;;;;5032444;28;20042;-64
2021/12/26 11:51:20;;;;;;;20.42;11.10;;;3.90;99.90;;;;;;5031782;28;20219;-64
2021/12/26 11:54:21;;;;;;;20.60;11.43;;;3.90;99.90;;;;;;5032464;28;20116;-64
2021/12/26 11:57:14;;;;;;;19.35;11.80;;;4.00;99.90;;;;;;5014171;28;20054;-64
2021/12/26 12:00:06;;;;;;;17.90;11.07;;;4.00;99.90;;;;;;5031207;28;20488;-64
2021/12/26 12:02:52;;;;;;;35.13;18.98;;;3.90;99.90;;;;;;5030970;28;20088;-64
2021/12/26 12:05:27;;;;;;;21.45;12.07;;;3.90;99.90;;;;;;5055072;28;20073;-64
2021/12/26 12:07:59;;;;;;;21.63;12.48;;;3.90;99.90;;;;;;5030496;28;20793;-64
2021/12/26 12:10:31;;;;;;;20.80;11.90;;;3.90;99.90;;;;;;5031666;28;20057;-64
2021/12/26 12:12:59;;;;;;;19.45;11.43;;;4.00;99.90;;;;;;5031211;28;20044;-65
2021/12/26 12:15:44;;;;;;;19.10;10.63;;;4.10;99.90;;;;;;5030280;28;20507;-64
2021/12/26 12:18:16;;;;;;;19.80;11.30;;;4.10;99.90;;;;;;5032252;28;20037;-64
2021/12/26 12:20:44;;;;;;;20.55;11.90;;;4.20;99.90;;;;;;5032404;28;20500;-64
2021/12/26 12:23:15;;;;;;;21.00;12.00;;;4.20;99.90;;;;;;5030389;28;20052;-64
2021/12/26 12:25:52;;;;;;;21.02;11.75;;;4.30;99.90;;;;;;5029893;28;20053;-64
2021/12/26 12:28:31;;;;;;;20.45;11.43;;;4.40;99.90;;;;;;5028060;28;20408;-64
2021/12/26 12:31:08;;;;;;;16.90;10.35;;;4.40;99.90;;;;;;5029702;28;20053;-64
2021/12/26 12:33:38;;;;;;;18.33;10.13;;;4.40;99.90;;;;;;5029263;28;20449;-64
2021/12/26 12:36:26;;;;;;;18.95;11.05;;;4.50;99.90;;;;;;5029888;28;20080;-64
2021/12/26 12:38:54;;;;;;;22.92;14.15;;;4.40;99.90;;;;;;5029790;28;20470;-64
2021/12/26 12:41:41;;;;;;;31.38;18.70;;;4.50;99.90;;;;;;5030302;28;20527;-64
2021/12/26 12:44:26;;;;;;;20.83;12.10;;;4.50;99.90;;;;;;5029821;28;20080;-64
2021/12/26 12:46:55;;;;;;;18.25;11.13;;;4.50;99.90;;;;;;5029405;28;20508;-66
2021/12/26 12:49:45;;;;;;;18.05;10.70;;;4.50;99.90;;;;;;5025335;28;20129;-65
2021/12/26 12:52:43;;;;;;;17.58;10.13;;;4.60;99.90;;;;;;5027130;28;20045;-64
2021/12/26 12:55:18;;;;;;;18.17;10.88;;;4.70;99.90;;;;;;5024568;28;20049;-63
2021/12/26 12:57:51;;;;;;;19.58;11.02;;;4.70;99.90;;;;;;5032510;28;20125;-63
2021/12/26 13:00:25;;;;;;;17.63;11.30;;;4.70;99.90;;;;;;5030517;28;20052;-64
2021/12/26 13:02:54;;;;;;;18.70;11.10;;;4.70;99.90;;;;;;5029710;28;20073;-63
2021/12/26 13:05:27;;;;;;;18.95;10.93;;;4.60;99.90;;;;;;5030720;28;20053;-63
2021/12/26 13:08:10;;;;;;;18.23;10.68;;;4.50;99.90;;;;;;5028440;28;20056;-63
2021/12/26 13:10:38;;;;;;;19.38;10.50;;;4.50;99.90;;;;;;5028568;28;20041;-63
2021/12/26 13:13:14;;;;;;;17.35;10.82;;;4.40;99.90;;;;;;5029862;28;20038;-63
2021/12/26 13:16:00;;;;;;;21.55;12.35;;;4.30;99.90;;;;;;5029399;28;20033;-63